Time;durP1;ratioP1;P1;durP2;ratioP2;P2;SDS_P1;SDS_P2;PMS_P1;PMS_P2;Temp;Humidity;BMP_temperature;BMP_pressure;BME280_temperature;BME280_humidity;BME280_pressure;Samples;Min_cycle;Max_cycle;Signal;HPM_P1;HPM_P2
2024/03/02 00:01:22;;;;;;;104.20;50.70;;;;;;;5.67;100.00;98437.95;271685;1267;24189;-88
2024/03/02 00:07:24;;;;;;;105.90;51.90;;;;;;;5.67;100.00;98432.20;272142;1266;22478;-87
2024/03/02 00:13:28;;;;;;;104.10;50.80;;;;;;;5.63;100.00;98430.95;273424;1266;22204;-89
2024/03/02 00:19:32;;;;;;;104.80;49.40;;;;;;;5.58;100.00;98428.91;273379;1266;22556;-88
2024/03/02 00:25:45;;;;;;;89.10;45.10;;;;;;;5.47;100.00;98434.80;273345;1267;22414;-88
2024/03/02 00:31:48;;;;;;;93.50;49.10;;;;;;;5.39;100.00;98438.41;272620;1267;22386;-89
2024/03/02 00:37:51;;;;;;;100.30;49.30;;;;;;;5.29;100.00;98433.52;273277;1266;22182;-88
2024/03/02 00:44:06;;;;;;;105.50;50.40;;;;;;;5.19;100.00;98430.27;273217;1265;22434;-88
2024/03/02 00:50:08;;;;;;;82.50;40.90;;;;;;;5.13;100.00;98429.89;273426;1266;22450;-88
2024/03/02 00:56:11;;;;;;;98.60;48.70;;;;;;;5.06;100.00;98429.73;273146;1265;22188;-88
2024/03/02 01:02:16;;;;;;;95.70;47.50;;;;;;;4.97;100.00;98414.89;273154;1267;22181;-90
2024/03/02 01:08:18;;;;;;;95.80;47.90;;;;;;;4.94;100.00;98411.77;273213;1266;24034;-88
2024/03/02 01:14:20;;;;;;;97.30;48.10;;;;;;;4.84;100.00;98406.27;273351;1266;23375;-90
2024/03/02 01:20:22;;;;;;;105.10;53.30;;;;;;;4.80;100.00;98401.84;273032;1266;22538;-88
2024/03/02 01:26:24;;;;;;;84.60;46.20;;;;;;;4.86;100.00;98401.13;271308;1266;22361;-88
2024/03/02 01:32:26;;;;;;;88.30;46.50;;;;;;;4.79;100.00;98401.98;271286;1267;22379;-87
2024/03/02 01:38:28;;;;;;;110.90;53.90;;;;;;;4.72;100.00;98402.35;271605;1266;22517;-88
2024/03/02 01:44:30;;;;;;;110.20;58.40;;;;;;;4.73;100.00;98396.63;271033;1267;22248;-89
2024/03/02 01:50:32;;;;;;;102.40;52.50;;;;;;;4.78;100.00;98388.25;273147;1266;22502;-89
2024/03/02 01:56:35;;;;;;;104.70;51.90;;;;;;;4.78;100.00;98384.14;273000;1267;23523;-87
2024/03/02 02:02:37;;;;;;;96.80;48.00;;;;;;;4.70;100.00;98381.77;273074;1267;22543;-88
2024/03/02 02:08:39;;;;;;;93.00;47.60;;;;;;;4.67;100.00;98385.65;272967;1266;22920;-89
2024/03/02 02:14:48;;;;;;;87.70;46.50;;;;;;;4.65;100.00;98389.54;273063;1266;22442;-89
2024/03/02 02:20:50;;;;;;;98.60;50.10;;;;;;;4.61;100.00;98382.55;272119;1256;22369;-88
2024/03/02 02:26:52;;;;;;;101.90;51.70;;;;;;;4.52;100.00;98379.39;272753;1267;22183;-88
2024/03/02 02:32:55;;;;;;;109.10;53.30;;;;;;;4.45;100.00;98381.14;273214;1250;22413;-85
2024/03/02 02:39:24;;;;;;;100.40;49.50;;;;;;;4.44;100.00;98382.52;270625;1266;22650;-85
2024/03/02 02:45:51;;;;;;;94.70;50.20;;;;;;;4.42;100.00;98381.99;272481;1258;23176;-86
2024/03/02 02:52:33;;;;;;;105.40;52.50;;;;;;;4.42;100.00;98380.53;273571;1267;22198;-85
2024/03/02 02:58:40;;;;;;;100.00;52.20;;;;;;;4.41;100.00;98376.41;273715;1266;22233;-85
2024/03/02 03:05:07;;;;;;;;;;;;;;;4.38;100.00;98376.41;274100;1270;22400;-85
2024/03/02 03:11:49;;;;;;;101.60;51.50;;;;;;;4.36;100.00;98371.55;273631;1266;23066;-85
2024/03/02 03:17:50;;;;;;;98.70;48.80;;;;;;;4.38;100.00;98371.45;273387;1266;22438;-84
2024/03/02 03:23:52;;;;;;;102.10;50.30;;;;;;;4.43;100.00;98375.68;272977;1266;23078;-85
2024/03/02 03:30:22;;;;;;;108.80;53.70;;;;;;;4.42;100.00;98370.54;273437;1269;22361;-85
2024/03/02 03:36:24;;;;;;;101.20;52.50;;;;;;;4.34;100.00;98364.05;272855;1268;22521;-86
2024/03/02 03:43:17;;;;;;;97.20;50.90;;;;;;;4.34;100.00;98358.39;272918;1266;22642;-85
2024/03/02 03:49:19;;;;;;;96.30;50.30;;;;;;;4.41;100.00;98355.18;270948;1266;22341;-86
2024/03/02 03:55:21;;;;;;;89.70;49.30;;;;;;;4.46;100.00;98360.29;272319;1266;22577;-85
2024/03/02 04:01:29;;;;;;;95.20;47.90;;;;;;;4.49;100.00;98356.33;271132;1267;22510;-85
2024/03/02 04:07:56;;;;;;;87.00;46.50;;;;;;;4.40;100.00;98353.69;272992;1268;22182;-86
2024/03/02 04:14:17;;;;;;;;;;;;;;;4.31;100.00;98358.73;273443;1267;22462;-85
2024/03/02 04:20:44;;;;;;;78.40;42.70;;;;;;;4.24;100.00;98364.90;273938;1271;22838;-84
2024/03/02 04:27:06;;;;;;;;;;;;;;;4.15;100.00;98366.81;274226;1270;23686;-84
2024/03/02 04:33:09;;;;;;;89.80;46.20;;;;;;;4.03;100.00;98367.59;273681;1268;22421;-84
2024/03/02 04:40:01;;;;;;;86.80;44.30;;;;;;;3.96;100.00;98367.57;273876;1266;22183;-85
2024/03/02 04:46:06;;;;;;;64.70;36.00;;;;;;;3.91;100.00;98376.63;272879;1267;22565;-84
2024/03/02 04:52:08;;;;;;;78.70;42.20;;;;;;;3.71;100.00;98376.75;271704;1267;23916;-84
2024/03/02 04:58:10;;;;;;;73.60;41.30;;;;;;;3.58;100.00;98371.77;271943;1265;22368;-85
2024/03/02 05:04:18;;;;;;;75.20;41.00;;;;;;;3.51;100.00;98379.35;273962;1274;23552;-84
2024/03/02 05:10:34;;;;;;;76.00;40.70;;;;;;;3.43;100.00;98384.63;272529;1269;24355;-84
2024/03/02 05:16:41;;;;;;;72.50;38.70;;;;;;;3.31;100.00;98396.16;273724;1251;22169;-84
2024/03/02 05:22:48;;;;;;;71.00;40.30;;;;;;;3.20;100.00;98405.35;273970;1275;22190;-84
2024/03/02 05:29:35;;;;;;;75.10;42.50;;;;;;;3.18;100.00;98412.02;273848;1268;22184;-85
2024/03/02 05:36:34;;;;;;;72.00;40.00;;;;;;;3.16;100.00;98424.39;273880;1268;23403;-85
2024/03/02 05:42:58;;;;;;;70.40;39.30;;;;;;;3.08;100.00;98422.90;273754;1267;22343;-84
2024/03/02 05:49:14;;;;;;;73.30;41.30;;;;;;;2.99;100.00;98417.99;273962;1266;22361;-84
2024/03/02 05:56:05;;;;;;;83.80;44.60;;;;;;;2.92;100.00;98420.06;273917;1267;22974;-84
2024/03/02 06:02:45;;;;;;;73.50;39.60;;;;;;;2.85;100.00;98413.86;273679;1266;22221;-86
2024/03/02 06:09:12;;;;;;;72.50;41.60;;;;;;;2.85;100.00;98428.83;273703;1257;22236;-84
2024/03/02 06:16:10;;;;;;;76.10;43.20;;;;;;;2.94;100.00;98435.97;274066;1271;22167;-84
2024/03/02 06:22:53;;;;;;;72.20;41.10;;;;;;;3.05;100.00;98440.05;274195;1267;22176;-84
2024/03/02 06:29:04;;;;;;;75.50;41.10;;;;;;;3.16;100.00;98447.89;273617;1266;22210;-84
2024/03/02 06:35:10;;;;;;;75.30;41.30;;;;;;;3.30;100.00;98447.67;273618;1267;23275;-84
2024/03/02 06:41:39;;;;;;;78.00;43.40;;;;;;;3.44;100.00;98444.41;274223;1270;22052;-84
2024/03/02 06:47:45;;;;;;;82.00;44.20;;;;;;;3.55;100.00;98440.41;273764;1267;22228;-84
2024/03/02 06:54:27;;;;;;;79.40;46.60;;;;;;;3.64;100.00;98438.44;274196;1266;22190;-84
2024/03/02 07:00:29;;;;;;;107.20;61.10;;;;;;;3.74;100.00;98451.35;273545;1266;22434;-85
2024/03/02 07:06:35;;;;;;;94.20;53.40;;;;;;;3.85;100.00;98453.20;273949;1275;22231;-85
2024/03/02 07:12:55;;;;;;;105.70;57.00;;;;;;;4.00;100.00;98444.34;273799;1272;22930;-84
2024/03/02 07:26:21;;;;;;;115.90;62.00;;;;;;;4.39;100.00;98438.90;271998;1267;23188;-85
2024/03/02 07:32:22;;;;;;;94.00;52.30;;;;;;;4.55;100.00;98444.73;274084;1267;22289;-84
2024/03/02 07:39:07;;;;;;;100.40;54.50;;;;;;;4.69;100.00;98461.69;274009;1267;22188;-84
2024/03/02 07:45:49;;;;;;;91.70;51.90;;;;;;;4.89;100.00;98466.77;274042;1267;22381;-84
2024/03/02 07:52:17;;;;;;;97.20;53.30;;;;;;;5.08;100.00;98463.66;273441;1266;22306;-85
2024/03/02 07:58:19;;;;;;;94.10;51.80;;;;;;;5.27;100.00;98462.78;272369;1267;22680;-85
2024/03/02 08:04:21;;;;;;;94.00;52.30;;;;;;;5.44;100.00;98465.13;271374;1265;23196;-85
2024/03/02 08:10:33;;;;;;;87.40;48.40;;;;;;;5.60;100.00;98468.36;271842;1266;23058;-85
2024/03/02 08:16:39;;;;;;;89.70;49.80;;;;;;;5.77;100.00;98466.34;274177;1267;22341;-86
2024/03/02 08:22:48;;;;;;;84.40;48.60;;;;;;;5.96;100.00;98467.07;274211;1273;22322;-86
2024/03/02 08:29:16;;;;;;;90.40;52.70;;;;;;;6.11;100.00;98466.05;273510;1266;23588;-88
2024/03/02 08:35:22;;;;;;;86.60;50.60;;;;;;;6.22;100.00;98467.61;273419;1266;22435;-86
2024/03/02 08:41:29;;;;;;;87.90;49.80;;;;;;;6.31;100.00;98473.84;273586;1266;22431;-86
2024/03/02 08:47:51;;;;;;;87.90;48.60;;;;;;;6.40;100.00;98476.55;273925;1266;22166;-87
2024/03/02 08:54:43;;;;;;;80.90;46.70;;;;;;;6.47;100.00;98475.61;273685;1266;22182;-86
2024/03/02 09:00:46;;;;;;;80.70;47.00;;;;;;;6.55;100.00;98489.27;271937;1267;22304;-86
2024/03/02 09:06:48;;;;;;;77.50;45.60;;;;;;;6.61;100.00;98496.70;273364;1266;22493;-86
2024/03/02 09:13:11;;;;;;;84.70;47.80;;;;;;;6.65;100.00;98500.59;273701;1266;22186;-86
2024/03/02 09:19:18;;;;;;;77.50;45.10;;;;;;;6.72;100.00;98504.83;273990;1273;22200;-86
2024/03/02 09:25:20;;;;;;;74.20;44.40;;;;;;;6.80;100.00;98508.40;273533;1266;23038;-86
2024/03/02 09:32:02;;;;;;;68.70;42.30;;;;;;;6.92;100.00;98509.31;273553;1267;22194;-85
2024/03/02 09:38:15;;;;;;;76.80;45.00;;;;;;;7.07;100.00;98510.04;273481;1270;23810;-86
2024/03/02 09:44:19;;;;;;;66.50;40.40;;;;;;;7.20;100.00;98515.62;274060;1267;22162;-85
2024/03/02 09:50:21;;;;;;;76.00;46.50;;;;;;;7.33;100.00;98518.25;272589;1266;22497;-86
2024/03/02 09:56:55;;;;;;;71.40;43.30;;;;;;;7.43;100.00;98521.67;271753;1266;22254;-87
2024/03/02 10:02:58;;;;;;;77.50;44.70;;;;;;;7.52;100.00;98522.14;273577;1263;22282;-87
2024/03/02 10:09:01;;;;;;;75.30;44.80;;;;;;;7.62;100.00;98524.08;273421;1267;22539;-86
2024/03/02 10:15:05;;;;;;;73.90;44.90;;;;;;;7.73;100.00;98526.19;270462;1266;24219;-86
2024/03/02 10:21:15;;;;;;;76.90;45.40;;;;;;;7.85;100.00;98527.23;270563;1266;22414;-87
2024/03/02 10:27:23;;;;;;;70.80;43.40;;;;;;;7.97;100.00;98524.67;271168;1266;22467;-86
2024/03/02 10:33:32;;;;;;;77.00;44.50;;;;;;;8.10;100.00;98519.00;272675;1266;22540;-87
2024/03/02 10:39:39;;;;;;;75.90;44.90;;;;;;;8.21;100.00;98516.80;271936;1263;22492;-86
2024/03/02 10:46:03;;;;;;;74.20;45.40;;;;;;;8.34;100.00;98511.23;273304;1266;22193;-85
2024/03/02 10:52:05;;;;;;;74.00;46.40;;;;;;;8.47;100.00;98509.05;274197;1263;22287;-87
2024/03/02 10:58:12;;;;;;;70.70;42.10;;;;;;;8.68;100.00;98504.30;272784;1267;22246;-86
2024/03/02 11:04:39;;;;;;;66.20;39.60;;;;;;;8.90;100.00;98499.15;273951;1267;22178;-86
2024/03/02 11:10:48;;;;;;;56.50;36.20;;;;;;;9.04;100.00;98496.08;272824;1267;22435;-86
2024/03/02 11:17:18;;;;;;;56.50;36.90;;;;;;;9.13;100.00;98492.33;273758;1267;22153;-86
2024/03/02 11:23:50;;;;;;;54.70;34.70;;;;;;;9.38;100.00;98483.17;273530;1267;22418;-86
2024/03/02 11:29:54;;;;;;;48.20;31.40;;;;;;;9.66;100.00;98477.52;273340;1264;22563;-87
2024/03/02 11:36:07;;;;;;;53.70;31.50;;;;;;;9.88;100.00;98478.35;269809;1266;5386949;-86
2024/03/02 11:42:10;;;;;;;48.10;31.50;;;;;;;10.01;100.00;98480.86;273676;1266;23290;-87
2024/03/02 11:48:32;;;;;;;45.00;28.20;;;;;;;10.03;100.00;98479.92;273900;1274;23818;-87
2024/03/02 11:54:59;;;;;;;45.10;28.80;;;;;;;10.03;100.00;98474.37;273852;1267;23001;-87
2024/03/02 12:01:07;;;;;;;47.00;28.60;;;;;;;10.03;100.00;98469.06;274167;1266;23171;-86
2024/03/02 12:07:09;;;;;;;46.10;28.40;;;;;;;10.07;100.00;98467.38;273363;1266;23521;-87
2024/03/02 12:13:31;;;;;;;56.60;29.60;;;;;;;10.09;100.00;98466.86;271321;1263;23445;-87
2024/03/02 12:19:33;;;;;;;45.60;28.50;;;;;;;10.06;100.00;98470.55;270628;1266;22548;-86
2024/03/02 12:25:39;;;;;;;40.30;26.60;;;;;;;10.04;100.00;98477.42;273092;1266;23119;-86
2024/03/02 12:32:06;;;;;;;46.80;28.70;;;;;;;10.11;100.00;98472.80;274121;1266;22205;-86
2024/03/02 12:38:29;;;;;;;47.50;27.90;;;;;;;10.28;100.00;98467.86;274111;1274;22170;-87
2024/03/02 12:44:35;;;;;;;42.00;26.50;;;;;;;10.50;100.00;98465.04;274105;1268;22254;-87
2024/03/02 12:51:02;;;;;;;48.40;27.20;;;;;;;10.69;100.00;98464.78;273960;1268;22391;-87
2024/03/02 12:57:05;;;;;;;38.50;25.20;;;;;;;10.87;100.00;98456.37;273874;1266;22157;-86
2024/03/02 13:03:07;;;;;;;40.60;25.20;;;;;;;11.10;100.00;98452.32;272618;1251;24669;-86
2024/03/02 13:09:14;;;;;;;43.10;24.80;;;;;;;11.28;100.00;98458.66;271542;1266;22329;-87
2024/03/02 13:15:46;;;;;;;41.10;25.70;;;;;;;11.44;100.00;98458.41;270525;1266;22516;-87
2024/03/02 13:22:14;;;;;;;43.40;24.10;;;;;;;11.51;100.00;98454.88;273173;1271;22927;-87
2024/03/02 13:28:40;;;;;;;42.60;25.20;;;;;;;11.58;100.00;98448.85;274034;1267;23078;-87
2024/03/02 13:34:42;;;;;;;38.00;24.10;;;;;;;11.67;100.00;98445.33;273348;1266;22419;-86
2024/03/02 13:41:10;;;;;;;44.00;25.70;;;;;;;11.74;100.00;98446.41;273836;1271;22200;-87
2024/03/02 13:47:12;;;;;;;39.40;25.60;;;;;;;11.83;100.00;98447.41;273361;1266;22543;-87
2024/03/02 13:54:05;;;;;;;40.20;25.60;;;;;;;11.90;100.00;98443.31;271462;1262;22189;-87
2024/03/02 14:00:10;;;;;;;39.50;24.00;;;;;;;11.92;100.00;98446.59;274149;1268;22423;-87
2024/03/02 14:06:19;;;;;;;46.10;26.60;;;;;;;11.98;100.00;98443.91;273506;1266;22288;-87
2024/03/02 14:12:22;;;;;;;48.40;27.70;;;;;;;12.00;100.00;98440.30;272644;1253;22801;-87
2024/03/02 14:18:49;;;;;;;37.70;23.50;;;;;;;12.04;100.00;98438.64;273718;1257;23330;-87
2024/03/02 14:24:56;;;;;;;38.50;24.50;;;;;;;12.07;100.00;98439.26;273821;1266;22162;-84
2024/03/02 14:31:23;;;;;;;37.30;22.60;;;;;;;12.07;100.00;98447.27;273456;1261;23171;-84
2024/03/02 14:37:35;;;;;;;35.50;23.00;;;;;;;12.08;100.00;98448.42;273585;1267;22381;-84
2024/03/02 14:43:40;;;;;;;38.10;24.20;;;;;;;12.09;100.00;98450.94;273933;1263;24029;-84
2024/03/02 14:49:43;;;;;;;35.20;23.50;;;;;;;12.04;100.00;98446.23;274056;1267;23606;-84
2024/03/02 14:55:45;;;;;;;38.50;23.00;;;;;;;11.98;100.00;98441.56;274065;1267;22211;-85
2024/03/02 15:01:57;;;;;;;38.10;22.60;;;;;;;11.90;100.00;98443.63;273893;1268;22246;-84
2024/03/02 15:08:04;;;;;;;36.40;21.00;;;;;;;11.80;100.00;98436.44;274245;1267;22960;-84
2024/03/02 15:14:50;;;;;;;34.30;21.10;;;;;;;11.73;100.00;98432.16;274285;1269;22896;-84
2024/03/02 15:21:10;;;;;;;34.90;21.60;;;;;;;11.70;100.00;98429.73;273440;1266;22442;-87
2024/03/02 15:27:12;;;;;;;41.50;24.10;;;;;;;11.65;100.00;98432.95;273477;1266;22505;-86
2024/03/02 15:33:31;;;;;;;51.40;27.30;;;;;;;11.58;100.00;98436.31;272567;1266;22515;-86
2024/03/02 15:39:33;;;;;;;83.00;43.70;;;;;;;11.47;100.00;98429.52;270764;1266;25514;-87
2024/03/02 15:45:34;;;;;;;68.70;38.40;;;;;;;11.36;100.00;98424.76;270858;1267;23651;-86
2024/03/02 15:51:55;;;;;;;48.70;29.10;;;;;;;11.28;100.00;98420.85;271514;1266;22571;-86
2024/03/02 15:57:58;;;;;;;46.10;27.10;;;;;;;11.17;100.00;98421.39;271090;1266;22614;-87
2024/03/02 16:04:21;;;;;;;40.80;24.10;;;;;;;11.00;100.00;98414.91;271819;1266;22497;-87
2024/03/02 16:10:43;;;;;;;38.70;24.30;;;;;;;10.80;100.00;98415.36;272816;1267;24231;-86
2024/03/02 16:16:45;;;;;;;42.40;24.50;;;;;;;10.57;100.00;98414.55;270632;1266;24262;-86
2024/03/02 16:22:47;;;;;;;50.10;24.60;;;;;;;10.38;100.00;98412.64;270960;1266;22544;-86
2024/03/02 16:28:54;;;;;;;48.70;27.80;;;;;;;10.14;100.00;98409.12;271711;1266;22536;-86
2024/03/02 16:34:56;;;;;;;51.30;29.10;;;;;;;9.94;100.00;98416.83;271540;1265;22560;-87
2024/03/02 16:41:00;;;;;;;47.90;28.50;;;;;;;9.69;100.00;98427.41;271918;1266;22532;-86
2024/03/02 16:47:05;;;;;;;53.80;32.70;;;;;;;9.52;100.00;98425.96;272001;1265;22790;-86
2024/03/02 16:53:56;;;;;;;53.40;29.20;;;;;;;9.38;100.00;98427.85;272348;1266;22527;-87
2024/03/02 16:59:58;;;;;;;56.60;34.10;;;;;;;9.23;100.00;98430.33;271470;1265;22619;-86
2024/03/02 17:06:03;;;;;;;54.70;35.40;;;;;;;9.08;100.00;98431.53;271722;1265;23304;-84
2024/03/02 17:12:06;;;;;;;70.10;37.50;;;;;;;8.98;100.00;98440.48;272199;1266;22626;-86
2024/03/02 17:18:09;;;;;;;69.40;39.00;;;;;;;8.86;100.00;98445.30;272368;1266;22404;-86
2024/03/02 17:25:02;;;;;;;61.40;36.90;;;;;;;8.75;100.00;98446.13;272082;1265;22531;-87
2024/03/02 17:31:05;;;;;;;65.20;37.60;;;;;;;8.61;100.00;98440.23;271834;1266;22489;-86
2024/03/02 17:37:07;;;;;;;67.70;38.20;;;;;;;8.46;100.00;98443.88;271545;1260;22620;-87
2024/03/02 17:43:11;;;;;;;58.80;33.10;;;;;;;8.30;100.00;98445.96;271595;1266;23611;-87
2024/03/02 17:49:14;;;;;;;68.00;34.50;;;;;;;8.05;100.00;98443.09;271487;1256;25297;-86
2024/03/02 17:55:16;;;;;;;62.90;33.10;;;;;;;7.84;100.00;98438.61;271913;1266;24193;-86
2024/03/02 18:01:18;;;;;;;79.00;41.40;;;;;;;7.75;100.00;98438.64;272049;1266;22418;-85
2024/03/02 18:07:40;;;;;;;82.20;40.60;;;;;;;7.69;100.00;98442.14;271165;1266;25377;-85
2024/03/02 18:13:41;;;;;;;80.50;42.60;;;;;;;7.59;100.00;98440.05;270762;1265;25907;-85
2024/03/02 18:19:43;;;;;;;88.00;47.80;;;;;;;7.48;100.00;98435.85;271823;1266;23534;-85
2024/03/02 18:25:48;;;;;;;82.70;49.20;;;;;;;7.39;100.00;98436.12;271141;1266;22602;-86
2024/03/02 18:31:50;;;;;;;85.80;48.40;;;;;;;7.27;100.00;98433.76;271137;1266;22457;-86
2024/03/02 18:38:00;;;;;;;80.60;45.90;;;;;;;7.15;100.00;98431.31;273742;1266;22153;-85
2024/03/02 18:44:03;;;;;;;72.80;40.10;;;;;;;7.02;100.00;98429.09;272781;1266;22484;-85
2024/03/02 18:50:09;;;;;;;76.70;44.80;;;;;;;6.86;100.00;98428.22;272313;1266;22269;-85
2024/03/02 18:56:14;;;;;;;82.90;49.60;;;;;;;6.75;100.00;98426.86;273417;1266;22177;-85
2024/03/02 19:02:16;;;;;;;87.40;49.60;;;;;;;6.62;100.00;98427.33;273618;1266;22422;-86
2024/03/02 19:08:50;;;;;;;84.90;50.30;;;;;;;6.47;100.00;98432.27;273884;1266;22443;-85
2024/03/02 19:15:00;;;;;;;75.90;43.90;;;;;;;6.38;100.00;98433.34;273712;1266;22238;-85
2024/03/02 19:21:04;;;;;;;89.30;52.70;;;;;;;6.26;100.00;98430.09;274160;1267;23016;-85
2024/03/02 19:27:13;;;;;;;84.80;48.10;;;;;;;6.04;100.00;98435.41;273598;1266;22271;-86
2024/03/02 19:40:28;;;;;;;96.40;55.10;;;;;;;5.84;100.00;98434.69;271689;1266;23629;-84
2024/03/02 19:46:31;;;;;;;118.80;67.50;;;;;;;5.84;100.00;98425.44;271521;1266;22679;-85
2024/03/02 19:52:33;;;;;;;140.50;78.50;;;;;;;5.81;100.00;98421.89;272416;1266;23329;-86
2024/03/02 19:58:36;;;;;;;146.00;81.70;;;;;;;5.73;100.00;98417.98;273353;1266;22429;-86
2024/03/02 20:04:38;;;;;;;127.50;72.70;;;;;;;5.79;100.00;98412.30;271636;1266;22653;-87
2024/03/02 20:10:40;;;;;;;125.10;70.40;;;;;;;5.96;100.00;98402.95;270897;1266;22178;-86
2024/03/02 20:16:45;;;;;;;110.30;63.10;;;;;;;6.12;100.00;98402.19;273956;1266;22171;-85
2024/03/02 20:22:46;;;;;;;151.30;78.80;;;;;;;5.97;100.00;98411.89;272022;1266;22509;-86
2024/03/02 20:29:08;;;;;;;135.70;73.10;;;;;;;5.82;100.00;98417.10;271625;1266;22433;-86
2024/03/02 20:35:50;;;;;;;140.90;70.80;;;;;;;5.75;100.00;98415.77;273938;1267;23318;-86
2024/03/02 20:42:37;;;;;;;125.40;63.70;;;;;;;5.71;100.00;98420.59;274008;1259;23400;-85
2024/03/02 20:49:06;;;;;;;114.40;60.70;;;;;;;5.66;100.00;98420.17;274104;1267;22101;-85
2024/03/02 20:55:10;;;;;;;110.20;60.60;;;;;;;5.61;100.00;98424.86;274185;1259;23099;-85
2024/03/02 21:01:32;;;;;;;120.90;65.90;;;;;;;5.54;100.00;98428.75;274259;1273;22216;-85
2024/03/02 21:08:01;;;;;;;125.30;69.50;;;;;;;5.46;100.00;98429.11;272623;1266;22300;-86
2024/03/02 21:14:13;;;;;;;127.40;70.40;;;;;;;5.36;100.00;98425.40;274092;1266;22432;-86
2024/03/02 21:20:15;;;;;;;125.70;69.70;;;;;;;5.37;100.00;98420.62;272889;1266;22145;-85
2024/03/02 21:26:58;;;;;;;108.80;60.30;;;;;;;5.35;100.00;98418.78;273851;1262;22838;-85
2024/03/02 21:33:03;;;;;;;119.20;66.90;;;;;;;5.39;100.00;98424.36;272856;1266;23182;-86
2024/03/02 21:39:05;;;;;;;112.70;62.00;;;;;;;5.39;100.00;98428.72;273831;1266;22415;-86
2024/03/02 21:45:07;;;;;;;107.70;61.60;;;;;;;5.39;100.00;98435.30;273249;1266;22276;-85
2024/03/02 21:51:15;;;;;;;114.90;66.10;;;;;;;5.37;100.00;98432.31;270503;1266;22566;-85
2024/03/02 21:57:21;;;;;;;120.20;68.60;;;;;;;5.33;100.00;98439.05;270617;1267;22532;-85
2024/03/02 22:03:23;;;;;;;107.90;63.90;;;;;;;5.29;100.00;98438.95;272290;1267;22422;-86
2024/03/02 22:09:25;;;;;;;99.10;58.20;;;;;;;5.25;100.00;98437.16;273059;1267;22349;-85
2024/03/02 22:15:26;;;;;;;102.40;60.50;;;;;;;5.22;100.00;98439.19;273626;1266;22208;-85
2024/03/02 22:22:03;;;;;;;111.30;62.90;;;;;;;5.13;100.00;98438.60;274241;1267;22192;-85
2024/03/02 22:28:06;;;;;;;96.10;55.80;;;;;;;5.05;100.00;98437.09;273757;1266;22389;-86
2024/03/02 22:34:08;;;;;;;97.40;56.20;;;;;;;5.04;100.00;98438.06;273567;1264;23240;-85
2024/03/02 22:40:11;;;;;;;116.90;62.60;;;;;;;5.03;100.00;98438.13;273018;1266;22628;-85
2024/03/02 22:46:13;;;;;;;169.50;87.50;;;;;;;4.97;100.00;98442.70;271940;1266;22328;-86
2024/03/02 22:52:15;;;;;;;194.60;97.30;;;;;;;4.95;100.00;98441.95;270550;1267;22545;-85
2024/03/02 22:58:46;;;;;;;239.80;120.10;;;;;;;4.95;100.00;98436.13;271434;1266;22550;-84
2024/03/02 23:05:08;;;;;;;196.40;96.90;;;;;;;4.96;100.00;98428.64;274009;1267;22178;-85
2024/03/02 23:11:53;;;;;;;201.70;105.30;;;;;;;5.00;100.00;98431.15;273754;1266;22211;-84
2024/03/02 23:17:56;;;;;;;182.50;95.80;;;;;;;5.08;100.00;98433.44;273046;1266;23520;-84
2024/03/02 23:23:58;;;;;;;190.70;99.90;;;;;;;5.14;100.00;98431.73;271365;1266;22552;-85
2024/03/02 23:29:59;;;;;;;163.80;87.20;;;;;;;5.16;100.00;98429.44;271109;1265;24217;-84
2024/03/02 23:36:01;;;;;;;137.30;76.70;;;;;;;5.16;100.00;98432.33;270128;1266;155437;-84
2024/03/02 23:42:05;;;;;;;127.80;71.60;;;;;;;5.19;100.00;98433.45;271028;1267;23005;-85
2024/03/02 23:48:09;;;;;;;119.80;68.00;;;;;;;5.20;100.00;98435.27;274042;1270;22199;-85
2024/03/02 23:54:11;;;;;;;115.20;63.90;;;;;;;5.17;100.00;98440.15;272592;1267;22580;-86
